sensor_id;sensor_type;location;lat;lon;timestamp;P1;durP1;ratioP1;P2;durP2;ratioP2
22871;SDS011;11603;44.910;8.630;2022-09-29T00:01:31;21.30;;;13.77;;
22871;SDS011;11603;44.910;8.630;2022-09-29T00:03:57;18.73;;;12.95;;
22871;SDS011;11603;44.910;8.630;2022-09-29T00:06:22;18.17;;;13.05;;
22871;SDS011;11603;44.910;8.630;2022-09-29T00:08:48;17.77;;;13.23;;
22871;SDS011;11603;44.910;8.630;2022-09-29T00:11:15;19.25;;;12.77;;
22871;SDS011;11603;44.910;8.630;2022-09-29T00:13:43;25.20;;;14.82;;
22871;SDS011;11603;44.910;8.630;2022-09-29T00:16:09;23.23;;;13.45;;
22871;SDS011;11603;44.910;8.630;2022-09-29T00:18:36;20.95;;;14.18;;
22871;SDS011;11603;44.910;8.630;2022-09-29T00:21:03;24.45;;;14.80;;
22871;SDS011;11603;44.910;8.630;2022-09-29T00:23:31;21.45;;;14.35;;
22871;SDS011;11603;44.910;8.630;2022-09-29T00:26:20;20.70;;;14.48;;
22871;SDS011;11603;44.910;8.630;2022-09-29T00:28:46;20.58;;;14.35;;
22871;SDS011;11603;44.910;8.630;2022-09-29T00:31:26;27.92;;;17.75;;
22871;SDS011;11603;44.910;8.630;2022-09-29T00:33:54;29.95;;;17.52;;
22871;SDS011;11603;44.910;8.630;2022-09-29T00:36:20;23.02;;;15.80;;
22871;SDS011;11603;44.910;8.630;2022-09-29T00:38:46;25.58;;;16.40;;
22871;SDS011;11603;44.910;8.630;2022-09-29T00:41:14;26.83;;;18.48;;
22871;SDS011;11603;44.910;8.630;2022-09-29T00:46:28;25.90;;;18.38;;
22871;SDS011;11603;44.910;8.630;2022-09-29T00:49:29;28.17;;;19.23;;
22871;SDS011;11603;44.910;8.630;2022-09-29T00:52:04;30.33;;;19.52;;
22871;SDS011;11603;44.910;8.630;2022-09-29T00:54:46;38.13;;;18.95;;
22871;SDS011;11603;44.910;8.630;2022-09-29T00:57:17;29.70;;;19.45;;
22871;SDS011;11603;44.910;8.630;2022-09-29T00:59:50;22.55;;;15.27;;
22871;SDS011;11603;44.910;8.630;2022-09-29T01:02:18;22.02;;;13.65;;
22871;SDS011;11603;44.910;8.630;2022-09-29T01:04:44;18.58;;;13.18;;
22871;SDS011;11603;44.910;8.630;2022-09-29T01:07:12;18.55;;;13.32;;
22871;SDS011;11603;44.910;8.630;2022-09-29T01:09:38;18.63;;;13.30;;
22871;SDS011;11603;44.910;8.630;2022-09-29T01:12:07;17.30;;;12.75;;
22871;SDS011;11603;44.910;8.630;2022-09-29T01:14:34;18.42;;;13.32;;
22871;SDS011;11603;44.910;8.630;2022-09-29T01:17:02;16.55;;;12.93;;
22871;SDS011;11603;44.910;8.630;2022-09-29T01:22:24;22.73;;;13.93;;
22871;SDS011;11603;44.910;8.630;2022-09-29T01:25:10;22.98;;;14.35;;
22871;SDS011;11603;44.910;8.630;2022-09-29T01:28:05;18.75;;;13.13;;
22871;SDS011;11603;44.910;8.630;2022-09-29T01:33:46;17.60;;;12.32;;
22871;SDS011;11603;44.910;8.630;2022-09-29T01:42:01;24.83;;;13.32;;
22871;SDS011;11603;44.910;8.630;2022-09-29T01:44:32;19.77;;;12.18;;
22871;SDS011;11603;44.910;8.630;2022-09-29T01:47:08;18.92;;;11.75;;
22871;SDS011;11603;44.910;8.630;2022-09-29T01:49:39;17.48;;;11.43;;
22871;SDS011;11603;44.910;8.630;2022-09-29T01:52:15;17.58;;;10.82;;
22871;SDS011;11603;44.910;8.630;2022-09-29T01:55:00;18.65;;;11.27;;
22871;SDS011;11603;44.910;8.630;2022-09-29T01:57:51;15.32;;;10.15;;
22871;SDS011;11603;44.910;8.630;2022-09-29T02:00:19;18.17;;;11.77;;
22871;SDS011;11603;44.910;8.630;2022-09-29T02:05:42;21.63;;;11.68;;
22871;SDS011;11603;44.910;8.630;2022-09-29T02:10:56;17.88;;;11.90;;
22871;SDS011;11603;44.910;8.630;2022-09-29T02:13:25;17.23;;;11.57;;
22871;SDS011;11603;44.910;8.630;2022-09-29T02:15:53;18.48;;;10.55;;
22871;SDS011;11603;44.910;8.630;2022-09-29T02:18:24;19.25;;;11.00;;
22871;SDS011;11603;44.910;8.630;2022-09-29T02:20:54;21.27;;;11.32;;
22871;SDS011;11603;44.910;8.630;2022-09-29T02:23:19;17.60;;;10.85;;
22871;SDS011;11603;44.910;8.630;2022-09-29T02:25:45;23.00;;;12.07;;
22871;SDS011;11603;44.910;8.630;2022-09-29T02:28:14;19.88;;;12.20;;
22871;SDS011;11603;44.910;8.630;2022-09-29T02:30:41;20.48;;;12.55;;
22871;SDS011;11603;44.910;8.630;2022-09-29T02:33:17;15.90;;;11.95;;
22871;SDS011;11603;44.910;8.630;2022-09-29T02:38:21;18.65;;;13.50;;
22871;SDS011;11603;44.910;8.630;2022-09-29T02:41:00;19.52;;;13.35;;
22871;SDS011;11603;44.910;8.630;2022-09-29T02:43:43;25.55;;;13.30;;
22871;SDS011;11603;44.910;8.630;2022-09-29T02:51:46;25.70;;;16.38;;
22871;SDS011;11603;44.910;8.630;2022-09-29T02:59:32;24.95;;;16.95;;
22871;SDS011;11603;44.910;8.630;2022-09-29T03:02:04;28.67;;;17.50;;
22871;SDS011;11603;44.910;8.630;2022-09-29T03:04:30;32.22;;;16.77;;
22871;SDS011;11603;44.910;8.630;2022-09-29T03:06:55;32.38;;;16.67;;
22871;SDS011;11603;44.910;8.630;2022-09-29T03:09:21;28.08;;;18.40;;
22871;SDS011;11603;44.910;8.630;2022-09-29T03:11:46;22.95;;;17.20;;
22871;SDS011;11603;44.910;8.630;2022-09-29T03:14:12;24.35;;;16.50;;
22871;SDS011;11603;44.910;8.630;2022-09-29T03:16:37;29.95;;;18.48;;
22871;SDS011;11603;44.910;8.630;2022-09-29T03:19:03;24.27;;;16.88;;
22871;SDS011;11603;44.910;8.630;2022-09-29T03:21:32;23.65;;;16.45;;
22871;SDS011;11603;44.910;8.630;2022-09-29T03:23:59;27.02;;;16.50;;
22871;SDS011;11603;44.910;8.630;2022-09-29T03:26:25;27.23;;;17.17;;
22871;SDS011;11603;44.910;8.630;2022-09-29T03:28:51;26.10;;;16.90;;
22871;SDS011;11603;44.910;8.630;2022-09-29T03:31:17;22.38;;;16.73;;
22871;SDS011;11603;44.910;8.630;2022-09-29T03:33:43;29.92;;;17.65;;
22871;SDS011;11603;44.910;8.630;2022-09-29T03:36:09;24.65;;;16.88;;
22871;SDS011;11603;44.910;8.630;2022-09-29T03:38:36;29.13;;;18.45;;
22871;SDS011;11603;44.910;8.630;2022-09-29T03:41:01;29.40;;;18.00;;
22871;SDS011;11603;44.910;8.630;2022-09-29T03:43:27;31.60;;;17.70;;
22871;SDS011;11603;44.910;8.630;2022-09-29T03:45:53;25.70;;;17.60;;
22871;SDS011;11603;44.910;8.630;2022-09-29T03:48:20;23.75;;;14.85;;
22871;SDS011;11603;44.910;8.630;2022-09-29T03:50:47;27.05;;;14.98;;
22871;SDS011;11603;44.910;8.630;2022-09-29T03:53:13;21.05;;;14.55;;
22871;SDS011;11603;44.910;8.630;2022-09-29T03:55:39;28.92;;;12.70;;
22871;SDS011;11603;44.910;8.630;2022-09-29T03:58:05;24.55;;;13.63;;
22871;SDS011;11603;44.910;8.630;2022-09-29T04:00:31;25.70;;;13.73;;
22871;SDS011;11603;44.910;8.630;2022-09-29T04:02:57;17.90;;;13.23;;
22871;SDS011;11603;44.910;8.630;2022-09-29T04:05:23;25.15;;;14.35;;
22871;SDS011;11603;44.910;8.630;2022-09-29T04:07:48;21.00;;;13.95;;
22871;SDS011;11603;44.910;8.630;2022-09-29T04:10:14;24.08;;;13.00;;
22871;SDS011;11603;44.910;8.630;2022-09-29T04:12:40;21.13;;;14.05;;
22871;SDS011;11603;44.910;8.630;2022-09-29T04:15:06;20.50;;;14.45;;
22871;SDS011;11603;44.910;8.630;2022-09-29T04:17:32;22.13;;;14.82;;
22871;SDS011;11603;44.910;8.630;2022-09-29T04:19:57;18.08;;;14.18;;
22871;SDS011;11603;44.910;8.630;2022-09-29T04:22:23;24.70;;;14.55;;
22871;SDS011;11603;44.910;8.630;2022-09-29T04:24:48;29.20;;;14.95;;
22871;SDS011;11603;44.910;8.630;2022-09-29T04:27:15;24.92;;;14.85;;
22871;SDS011;11603;44.910;8.630;2022-09-29T04:29:41;23.42;;;14.20;;
22871;SDS011;11603;44.910;8.630;2022-09-29T04:32:06;25.38;;;14.57;;
22871;SDS011;11603;44.910;8.630;2022-09-29T04:34:32;25.77;;;15.48;;
22871;SDS011;11603;44.910;8.630;2022-09-29T04:36:58;21.50;;;14.68;;
22871;SDS011;11603;44.910;8.630;2022-09-29T04:39:25;20.30;;;13.95;;
22871;SDS011;11603;44.910;8.630;2022-09-29T04:41:51;21.55;;;13.93;;
22871;SDS011;11603;44.910;8.630;2022-09-29T04:44:17;18.05;;;13.98;;
22871;SDS011;11603;44.910;8.630;2022-09-29T04:46:48;24.02;;;14.57;;
22871;SDS011;11603;44.910;8.630;2022-09-29T04:49:14;23.70;;;14.45;;
22871;SDS011;11603;44.910;8.630;2022-09-29T04:51:39;20.58;;;13.63;;
22871;SDS011;11603;44.910;8.630;2022-09-29T04:54:05;19.02;;;13.60;;
22871;SDS011;11603;44.910;8.630;2022-09-29T04:56:31;21.23;;;14.57;;
22871;SDS011;11603;44.910;8.630;2022-09-29T04:58:57;26.17;;;14.00;;
22871;SDS011;11603;44.910;8.630;2022-09-29T05:01:23;22.58;;;15.20;;
22871;SDS011;11603;44.910;8.630;2022-09-29T05:03:49;24.35;;;15.10;;
22871;SDS011;11603;44.910;8.630;2022-09-29T05:06:14;21.30;;;14.10;;
22871;SDS011;11603;44.910;8.630;2022-09-29T05:08:41;23.38;;;14.60;;
22871;SDS011;11603;44.910;8.630;2022-09-29T05:11:07;23.80;;;15.18;;
22871;SDS011;11603;44.910;8.630;2022-09-29T05:13:34;24.13;;;14.85;;
22871;SDS011;11603;44.910;8.630;2022-09-29T05:16:00;24.00;;;14.55;;
22871;SDS011;11603;44.910;8.630;2022-09-29T05:18:25;22.63;;;14.88;;
22871;SDS011;11603;44.910;8.630;2022-09-29T05:20:51;23.50;;;13.85;;
22871;SDS011;11603;44.910;8.630;2022-09-29T05:23:17;23.15;;;14.38;;
22871;SDS011;11603;44.910;8.630;2022-09-29T05:25:43;21.33;;;14.63;;
22871;SDS011;11603;44.910;8.630;2022-09-29T05:28:09;24.17;;;13.90;;
22871;SDS011;11603;44.910;8.630;2022-09-29T05:30:36;20.75;;;13.70;;
22871;SDS011;11603;44.910;8.630;2022-09-29T05:33:03;22.10;;;14.35;;
22871;SDS011;11603;44.910;8.630;2022-09-29T05:35:29;23.80;;;14.98;;
22871;SDS011;11603;44.910;8.630;2022-09-29T05:37:55;24.48;;;15.77;;
22871;SDS011;11603;44.910;8.630;2022-09-29T05:40:20;21.75;;;15.35;;
22871;SDS011;11603;44.910;8.630;2022-09-29T05:42:49;27.15;;;15.93;;
22871;SDS011;11603;44.910;8.630;2022-09-29T05:45:15;24.48;;;14.77;;
22871;SDS011;11603;44.910;8.630;2022-09-29T05:47:41;26.45;;;14.55;;
22871;SDS011;11603;44.910;8.630;2022-09-29T05:50:08;22.48;;;15.13;;
22871;SDS011;11603;44.910;8.630;2022-09-29T05:52:35;21.00;;;13.98;;
22871;SDS011;11603;44.910;8.630;2022-09-29T05:55:01;22.90;;;15.10;;
22871;SDS011;11603;44.910;8.630;2022-09-29T05:57:27;19.85;;;14.00;;
22871;SDS011;11603;44.910;8.630;2022-09-29T05:59:53;22.80;;;13.40;;
22871;SDS011;11603;44.910;8.630;2022-09-29T06:02:18;21.23;;;13.65;;
22871;SDS011;11603;44.910;8.630;2022-09-29T06:04:44;22.17;;;14.57;;
22871;SDS011;11603;44.910;8.630;2022-09-29T06:07:09;21.80;;;13.13;;
22871;SDS011;11603;44.910;8.630;2022-09-29T06:09:35;21.42;;;13.93;;
22871;SDS011;11603;44.910;8.630;2022-09-29T06:12:01;25.75;;;13.25;;
22871;SDS011;11603;44.910;8.630;2022-09-29T06:14:27;23.20;;;12.63;;
22871;SDS011;11603;44.910;8.630;2022-09-29T06:16:53;19.92;;;13.45;;
22871;SDS011;11603;44.910;8.630;2022-09-29T06:19:19;20.23;;;12.77;;
22871;SDS011;11603;44.910;8.630;2022-09-29T06:21:44;20.92;;;12.63;;
22871;SDS011;11603;44.910;8.630;2022-09-29T06:24:10;28.27;;;14.07;;
22871;SDS011;11603;44.910;8.630;2022-09-29T06:26:35;15.82;;;12.10;;
22871;SDS011;11603;44.910;8.630;2022-09-29T06:29:01;17.80;;;13.07;;
22871;SDS011;11603;44.910;8.630;2022-09-29T06:31:28;31.15;;;13.27;;
22871;SDS011;11603;44.910;8.630;2022-09-29T06:33:56;22.73;;;13.30;;
22871;SDS011;11603;44.910;8.630;2022-09-29T06:36:30;21.98;;;13.95;;
22871;SDS011;11603;44.910;8.630;2022-09-29T06:39:18;19.77;;;13.98;;
22871;SDS011;11603;44.910;8.630;2022-09-29T06:41:44;23.30;;;14.70;;
22871;SDS011;11603;44.910;8.630;2022-09-29T06:44:16;19.67;;;15.77;;
22871;SDS011;11603;44.910;8.630;2022-09-29T06:46:42;20.65;;;14.18;;
22871;SDS011;11603;44.910;8.630;2022-09-29T06:49:09;20.80;;;14.35;;
22871;SDS011;11603;44.910;8.630;2022-09-29T06:51:36;21.40;;;14.55;;
22871;SDS011;11603;44.910;8.630;2022-09-29T06:54:02;23.27;;;15.05;;
22871;SDS011;11603;44.910;8.630;2022-09-29T06:56:27;24.15;;;14.13;;
22871;SDS011;11603;44.910;8.630;2022-09-29T06:58:54;28.35;;;15.10;;
22871;SDS011;11603;44.910;8.630;2022-09-29T07:01:25;25.70;;;13.73;;
22871;SDS011;11603;44.910;8.630;2022-09-29T07:03:51;18.05;;;13.65;;
22871;SDS011;11603;44.910;8.630;2022-09-29T07:06:16;25.63;;;14.23;;
22871;SDS011;11603;44.910;8.630;2022-09-29T07:08:42;20.77;;;13.98;;
22871;SDS011;11603;44.910;8.630;2022-09-29T07:11:07;22.83;;;13.75;;
22871;SDS011;11603;44.910;8.630;2022-09-29T07:13:34;23.42;;;14.30;;
22871;SDS011;11603;44.910;8.630;2022-09-29T07:16:06;20.77;;;14.43;;
22871;SDS011;11603;44.910;8.630;2022-09-29T07:18:34;20.75;;;14.68;;
22871;SDS011;11603;44.910;8.630;2022-09-29T07:21:02;22.23;;;13.98;;
22871;SDS011;11603;44.910;8.630;2022-09-29T07:23:31;19.48;;;14.63;;
22871;SDS011;11603;44.910;8.630;2022-09-29T07:25:57;25.67;;;14.63;;
22871;SDS011;11603;44.910;8.630;2022-09-29T07:28:22;22.40;;;13.13;;
22871;SDS011;11603;44.910;8.630;2022-09-29T07:30:58;23.38;;;14.38;;
22871;SDS011;11603;44.910;8.630;2022-09-29T07:33:24;25.70;;;14.05;;
22871;SDS011;11603;44.910;8.630;2022-09-29T07:35:52;24.33;;;15.27;;
22871;SDS011;11603;44.910;8.630;2022-09-29T07:38:19;21.00;;;14.35;;
22871;SDS011;11603;44.910;8.630;2022-09-29T07:40:44;25.23;;;14.57;;
22871;SDS011;11603;44.910;8.630;2022-09-29T07:43:10;30.85;;;15.30;;
22871;SDS011;11603;44.910;8.630;2022-09-29T07:45:36;21.85;;;15.77;;
22871;SDS011;11603;44.910;8.630;2022-09-29T07:48:01;24.85;;;15.55;;
22871;SDS011;11603;44.910;8.630;2022-09-29T07:50:27;19.65;;;15.32;;
22871;SDS011;11603;44.910;8.630;2022-09-29T07:52:52;29.23;;;16.02;;
22871;SDS011;11603;44.910;8.630;2022-09-29T07:55:17;26.02;;;15.73;;
22871;SDS011;11603;44.910;8.630;2022-09-29T07:57:48;20.02;;;15.68;;
22871;SDS011;11603;44.910;8.630;2022-09-29T08:00:14;26.65;;;15.65;;
22871;SDS011;11603;44.910;8.630;2022-09-29T08:02:41;39.53;;;24.30;;
22871;SDS011;11603;44.910;8.630;2022-09-29T08:05:07;20.35;;;15.10;;
22871;SDS011;11603;44.910;8.630;2022-09-29T08:07:33;19.23;;;14.43;;
22871;SDS011;11603;44.910;8.630;2022-09-29T08:09:59;20.65;;;14.10;;
22871;SDS011;11603;44.910;8.630;2022-09-29T08:12:25;24.75;;;13.90;;
22871;SDS011;11603;44.910;8.630;2022-09-29T08:14:51;17.95;;;13.60;;
22871;SDS011;11603;44.910;8.630;2022-09-29T08:17:17;23.95;;;13.38;;
22871;SDS011;11603;44.910;8.630;2022-09-29T08:19:42;21.25;;;14.65;;
22871;SDS011;11603;44.910;8.630;2022-09-29T08:22:08;20.25;;;14.32;;
22871;SDS011;11603;44.910;8.630;2022-09-29T08:24:33;19.25;;;14.45;;
22871;SDS011;11603;44.910;8.630;2022-09-29T08:27:01;19.60;;;14.13;;
22871;SDS011;11603;44.910;8.630;2022-09-29T08:29:29;20.25;;;14.80;;
22871;SDS011;11603;44.910;8.630;2022-09-29T08:31:54;19.15;;;15.23;;
22871;SDS011;11603;44.910;8.630;2022-09-29T08:34:21;19.25;;;14.70;;
22871;SDS011;11603;44.910;8.630;2022-09-29T08:36:46;22.63;;;15.05;;
22871;SDS011;11603;44.910;8.630;2022-09-29T08:39:12;20.25;;;14.43;;
22871;SDS011;11603;44.910;8.630;2022-09-29T08:47:07;26.00;;;14.88;;
22871;SDS011;11603;44.910;8.630;2022-09-29T08:50:30;21.52;;;16.00;;
22871;SDS011;11603;44.910;8.630;2022-09-29T08:53:11;24.10;;;16.55;;
22871;SDS011;11603;44.910;8.630;2022-09-29T08:55:42;22.30;;;16.95;;
22871;SDS011;11603;44.910;8.630;2022-09-29T08:58:11;21.52;;;17.02;;
22871;SDS011;11603;44.910;8.630;2022-09-29T09:00:41;22.25;;;16.73;;
22871;SDS011;11603;44.910;8.630;2022-09-29T09:03:20;24.52;;;16.90;;
22871;SDS011;11603;44.910;8.630;2022-09-29T09:11:14;26.45;;;17.20;;
22871;SDS011;11603;44.910;8.630;2022-09-29T09:25:03;31.05;;;17.13;;
22871;SDS011;11603;44.910;8.630;2022-09-29T09:27:38;23.60;;;16.30;;
22871;SDS011;11603;44.910;8.630;2022-09-29T09:30:11;23.50;;;16.55;;
22871;SDS011;11603;44.910;8.630;2022-09-29T09:32:49;24.52;;;16.80;;
22871;SDS011;11603;44.910;8.630;2022-09-29T09:38:22;26.60;;;17.27;;
22871;SDS011;11603;44.910;8.630;2022-09-29T09:40:52;23.40;;;17.42;;
22871;SDS011;11603;44.910;8.630;2022-09-29T09:43:27;23.75;;;16.50;;
22871;SDS011;11603;44.910;8.630;2022-09-29T09:48:42;24.45;;;17.73;;
22871;SDS011;11603;44.910;8.630;2022-09-29T09:51:29;26.85;;;18.30;;
22871;SDS011;11603;44.910;8.630;2022-09-29T09:54:01;26.45;;;16.85;;
22871;SDS011;11603;44.910;8.630;2022-09-29T09:56:41;26.40;;;16.20;;
22871;SDS011;11603;44.910;8.630;2022-09-29T10:02:19;26.85;;;15.93;;
22871;SDS011;11603;44.910;8.630;2022-09-29T10:04:47;22.95;;;16.92;;
22871;SDS011;11603;44.910;8.630;2022-09-29T10:07:21;22.50;;;16.67;;
22871;SDS011;11603;44.910;8.630;2022-09-29T10:09:48;30.13;;;17.25;;
22871;SDS011;11603;44.910;8.630;2022-09-29T10:12:18;23.90;;;17.55;;
22871;SDS011;11603;44.910;8.630;2022-09-29T10:14:58;28.58;;;18.52;;
22871;SDS011;11603;44.910;8.630;2022-09-29T10:17:30;21.75;;;17.70;;
22871;SDS011;11603;44.910;8.630;2022-09-29T10:20:05;32.30;;;17.92;;
22871;SDS011;11603;44.910;8.630;2022-09-29T10:22:32;28.48;;;17.83;;
22871;SDS011;11603;44.910;8.630;2022-09-29T10:27:39;25.08;;;18.48;;
22871;SDS011;11603;44.910;8.630;2022-09-29T10:30:53;24.55;;;18.90;;
22871;SDS011;11603;44.910;8.630;2022-09-29T10:33:00;28.50;;;19.20;;
22871;SDS011;11603;44.910;8.630;2022-09-29T10:35:31;27.02;;;19.38;;
22871;SDS011;11603;44.910;8.630;2022-09-29T10:38:22;26.88;;;18.10;;
22871;SDS011;11603;44.910;8.630;2022-09-29T10:40:56;28.48;;;19.17;;
22871;SDS011;11603;44.910;8.630;2022-09-29T10:43:27;23.83;;;18.33;;
22871;SDS011;11603;44.910;8.630;2022-09-29T10:45:59;23.70;;;18.20;;
22871;SDS011;11603;44.910;8.630;2022-09-29T10:48:26;22.92;;;18.25;;
22871;SDS011;11603;44.910;8.630;2022-09-29T10:50:56;28.73;;;18.50;;
22871;SDS011;11603;44.910;8.630;2022-09-29T10:56:02;22.42;;;18.45;;
22871;SDS011;11603;44.910;8.630;2022-09-29T10:58:41;29.05;;;20.30;;
22871;SDS011;11603;44.910;8.630;2022-09-29T11:01:15;26.05;;;19.00;;
22871;SDS011;11603;44.910;8.630;2022-09-29T11:06:13;26.75;;;19.30;;
22871;SDS011;11603;44.910;8.630;2022-09-29T11:08:53;27.65;;;20.30;;
22871;SDS011;11603;44.910;8.630;2022-09-29T11:12:10;25.95;;;18.52;;
22871;SDS011;11603;44.910;8.630;2022-09-29T11:14:40;27.67;;;18.85;;
22871;SDS011;11603;44.910;8.630;2022-09-29T11:17:30;26.40;;;18.67;;
22871;SDS011;11603;44.910;8.630;2022-09-29T11:20:04;26.27;;;19.05;;
22871;SDS011;11603;44.910;8.630;2022-09-29T11:36:08;25.13;;;19.20;;
22871;SDS011;11603;44.910;8.630;2022-09-29T11:38:51;26.00;;;18.05;;
22871;SDS011;11603;44.910;8.630;2022-09-29T11:44:32;27.20;;;18.92;;
22871;SDS011;11603;44.910;8.630;2022-09-29T11:52:50;25.27;;;17.20;;
22871;SDS011;11603;44.910;8.630;2022-09-29T11:58:17;23.38;;;18.73;;
22871;SDS011;11603;44.910;8.630;2022-09-29T12:03:45;27.92;;;18.75;;
22871;SDS011;11603;44.910;8.630;2022-09-29T12:16:55;28.95;;;19.48;;
22871;SDS011;11603;44.910;8.630;2022-09-29T12:19:25;31.63;;;19.17;;
22871;SDS011;11603;44.910;8.630;2022-09-29T12:21:54;27.40;;;18.65;;
22871;SDS011;11603;44.910;8.630;2022-09-29T12:27:53;21.67;;;18.17;;
22871;SDS011;11603;44.910;8.630;2022-09-29T12:35:18;28.58;;;17.30;;
22871;SDS011;11603;44.910;8.630;2022-09-29T12:38:11;25.17;;;17.85;;
22871;SDS011;11603;44.910;8.630;2022-09-29T12:40:42;24.40;;;16.42;;
22871;SDS011;11603;44.910;8.630;2022-09-29T12:49:08;22.33;;;16.98;;
22871;SDS011;11603;44.910;8.630;2022-09-29T12:51:49;25.10;;;16.83;;
22871;SDS011;11603;44.910;8.630;2022-09-29T12:59:34;26.70;;;16.60;;
22871;SDS011;11603;44.910;8.630;2022-09-29T13:02:14;20.52;;;15.27;;
22871;SDS011;11603;44.910;8.630;2022-09-29T13:04:56;24.63;;;14.45;;
22871;SDS011;11603;44.910;8.630;2022-09-29T13:13:32;21.98;;;13.50;;
22871;SDS011;11603;44.910;8.630;2022-09-29T13:30:13;18.83;;;12.43;;
22871;SDS011;11603;44.910;8.630;2022-09-29T13:35:20;16.70;;;10.50;;
22871;SDS011;11603;44.910;8.630;2022-09-29T13:38:22;18.48;;;11.43;;
22871;SDS011;11603;44.910;8.630;2022-09-29T13:43:39;19.30;;;10.77;;
22871;SDS011;11603;44.910;8.630;2022-09-29T13:51:43;15.15;;;10.48;;
22871;SDS011;11603;44.910;8.630;2022-09-29T13:56:49;17.23;;;10.05;;
22871;SDS011;11603;44.910;8.630;2022-09-29T13:59:25;15.98;;;10.73;;
22871;SDS011;11603;44.910;8.630;2022-09-29T14:01:55;17.55;;;10.52;;
22871;SDS011;11603;44.910;8.630;2022-09-29T14:07:33;13.73;;;8.98;;
22871;SDS011;11603;44.910;8.630;2022-09-29T14:10:12;13.98;;;9.15;;
22871;SDS011;11603;44.910;8.630;2022-09-29T14:12:44;13.02;;;8.93;;
22871;SDS011;11603;44.910;8.630;2022-09-29T14:15:16;24.23;;;8.48;;
22871;SDS011;11603;44.910;8.630;2022-09-29T14:17:44;19.42;;;8.02;;
22871;SDS011;11603;44.910;8.630;2022-09-29T14:20:20;15.23;;;9.10;;
22871;SDS011;11603;44.910;8.630;2022-09-29T14:22:57;16.40;;;8.90;;
22871;SDS011;11603;44.910;8.630;2022-09-29T14:25:31;18.80;;;9.20;;
22871;SDS011;11603;44.910;8.630;2022-09-29T14:28:00;14.40;;;7.55;;
22871;SDS011;11603;44.910;8.630;2022-09-29T14:32:57;10.88;;;7.25;;
22871;SDS011;11603;44.910;8.630;2022-09-29T14:35:27;12.60;;;6.68;;
22871;SDS011;11603;44.910;8.630;2022-09-29T14:37:57;11.80;;;6.25;;
22871;SDS011;11603;44.910;8.630;2022-09-29T14:40:27;10.07;;;6.05;;
22871;SDS011;11603;44.910;8.630;2022-09-29T14:43:03;11.77;;;5.93;;
22871;SDS011;11603;44.910;8.630;2022-09-29T14:51:53;9.52;;;5.10;;
22871;SDS011;11603;44.910;8.630;2022-09-29T14:54:31;12.70;;;5.97;;
22871;SDS011;11603;44.910;8.630;2022-09-29T15:00:01;9.98;;;5.47;;
22871;SDS011;11603;44.910;8.630;2022-09-29T15:02:30;8.38;;;4.75;;
22871;SDS011;11603;44.910;8.630;2022-09-29T15:04:59;9.15;;;5.20;;
22871;SDS011;11603;44.910;8.630;2022-09-29T15:07:38;11.43;;;4.90;;
22871;SDS011;11603;44.910;8.630;2022-09-29T15:10:13;10.68;;;4.55;;
22871;SDS011;11603;44.910;8.630;2022-09-29T15:12:45;12.35;;;5.05;;
22871;SDS011;11603;44.910;8.630;2022-09-29T15:21:05;8.15;;;2.95;;
22871;SDS011;11603;44.910;8.630;2022-09-29T15:26:23;7.82;;;2.42;;
22871;SDS011;11603;44.910;8.630;2022-09-29T15:28:54;7.63;;;2.30;;
22871;SDS011;11603;44.910;8.630;2022-09-29T15:31:24;10.82;;;3.28;;
22871;SDS011;11603;44.910;8.630;2022-09-29T15:33:53;8.50;;;3.20;;
22871;SDS011;11603;44.910;8.630;2022-09-29T15:38:45;8.43;;;2.05;;
22871;SDS011;11603;44.910;8.630;2022-09-29T15:41:17;4.88;;;1.65;;
22871;SDS011;11603;44.910;8.630;2022-09-29T15:43:51;6.28;;;1.58;;
22871;SDS011;11603;44.910;8.630;2022-09-29T15:51:30;5.05;;;1.45;;
22871;SDS011;11603;44.910;8.630;2022-09-29T15:53:55;9.30;;;1.45;;
22871;SDS011;11603;44.910;8.630;2022-09-29T15:56:24;4.25;;;1.63;;
22871;SDS011;11603;44.910;8.630;2022-09-29T15:58:50;7.53;;;1.30;;
22871;SDS011;11603;44.910;8.630;2022-09-29T16:01:15;6.55;;;1.70;;
22871;SDS011;11603;44.910;8.630;2022-09-29T16:08:49;3.95;;;1.23;;
22871;SDS011;11603;44.910;8.630;2022-09-29T16:11:20;9.90;;;1.70;;
22871;SDS011;11603;44.910;8.630;2022-09-29T16:14:09;6.38;;;1.60;;
22871;SDS011;11603;44.910;8.630;2022-09-29T16:16:42;5.10;;;1.33;;
22871;SDS011;11603;44.910;8.630;2022-09-29T16:19:12;4.25;;;1.40;;
22871;SDS011;11603;44.910;8.630;2022-09-29T16:21:49;6.47;;;1.33;;
22871;SDS011;11603;44.910;8.630;2022-09-29T16:24:20;18.08;;;2.63;;
22871;SDS011;11603;44.910;8.630;2022-09-29T16:26:51;7.38;;;1.48;;
22871;SDS011;11603;44.910;8.630;2022-09-29T16:31:44;8.05;;;1.60;;
22871;SDS011;11603;44.910;8.630;2022-09-29T16:36:46;7.55;;;1.55;;
22871;SDS011;11603;44.910;8.630;2022-09-29T16:39:16;10.73;;;1.67;;
22871;SDS011;11603;44.910;8.630;2022-09-29T16:41:47;10.35;;;2.00;;
22871;SDS011;11603;44.910;8.630;2022-09-29T16:44:14;10.23;;;1.77;;
22871;SDS011;11603;44.910;8.630;2022-09-29T16:46:44;12.32;;;1.67;;
22871;SDS011;11603;44.910;8.630;2022-09-29T16:49:26;7.72;;;1.50;;
22871;SDS011;11603;44.910;8.630;2022-09-29T16:51:57;5.03;;;1.60;;
22871;SDS011;11603;44.910;8.630;2022-09-29T16:54:45;9.55;;;1.83;;
22871;SDS011;11603;44.910;8.630;2022-09-29T16:59:42;24.50;;;2.80;;
22871;SDS011;11603;44.910;8.630;2022-09-29T17:02:11;14.48;;;2.30;;
22871;SDS011;11603;44.910;8.630;2022-09-29T17:04:37;12.35;;;2.15;;
22871;SDS011;11603;44.910;8.630;2022-09-29T17:07:03;8.93;;;1.50;;
22871;SDS011;11603;44.910;8.630;2022-09-29T17:09:29;10.20;;;1.90;;
22871;SDS011;11603;44.910;8.630;2022-09-29T17:11:55;7.45;;;2.13;;
22871;SDS011;11603;44.910;8.630;2022-09-29T17:14:21;9.45;;;2.20;;
22871;SDS011;11603;44.910;8.630;2022-09-29T17:16:49;9.90;;;1.98;;
22871;SDS011;11603;44.910;8.630;2022-09-29T17:19:15;6.88;;;2.38;;
22871;SDS011;11603;44.910;8.630;2022-09-29T17:21:41;14.05;;;2.50;;
22871;SDS011;11603;44.910;8.630;2022-09-29T17:24:07;9.90;;;1.85;;
22871;SDS011;11603;44.910;8.630;2022-09-29T17:26:37;10.43;;;2.42;;
22871;SDS011;11603;44.910;8.630;2022-09-29T17:29:24;11.65;;;2.15;;
22871;SDS011;11603;44.910;8.630;2022-09-29T17:31:49;13.88;;;2.75;;
22871;SDS011;11603;44.910;8.630;2022-09-29T17:34:15;13.65;;;2.50;;
22871;SDS011;11603;44.910;8.630;2022-09-29T17:36:41;13.93;;;3.55;;
22871;SDS011;11603;44.910;8.630;2022-09-29T17:39:07;9.50;;;2.83;;
22871;SDS011;11603;44.910;8.630;2022-09-29T17:41:33;11.77;;;2.97;;
22871;SDS011;11603;44.910;8.630;2022-09-29T17:43:59;13.05;;;3.22;;
22871;SDS011;11603;44.910;8.630;2022-09-29T17:46:29;16.17;;;3.10;;
22871;SDS011;11603;44.910;8.630;2022-09-29T17:48:55;10.50;;;2.50;;
22871;SDS011;11603;44.910;8.630;2022-09-29T17:51:20;13.20;;;2.65;;
22871;SDS011;11603;44.910;8.630;2022-09-29T17:53:46;8.02;;;3.00;;
22871;SDS011;11603;44.910;8.630;2022-09-29T17:58:50;12.77;;;2.55;;
22871;SDS011;11603;44.910;8.630;2022-09-29T18:01:18;10.85;;;2.70;;
22871;SDS011;11603;44.910;8.630;2022-09-29T18:03:45;17.02;;;3.38;;
22871;SDS011;11603;44.910;8.630;2022-09-29T18:06:18;17.25;;;3.38;;
22871;SDS011;11603;44.910;8.630;2022-09-29T18:08:51;11.55;;;2.58;;
22871;SDS011;11603;44.910;8.630;2022-09-29T18:11:18;14.15;;;2.90;;
22871;SDS011;11603;44.910;8.630;2022-09-29T18:13:45;12.23;;;2.92;;